Time;durP1;ratioP1;P1;durP2;ratioP2;P2;SDS_P1;SDS_P2;PMS_P1;PMS_P2;Temp;Humidity;BMP_temperature;BMP_pressure;BME280_temperature;BME280_humidity;BME280_pressure;Samples;Min_cycle;Max_cycle;Signal;HPM_P1;HPM_P2
2021/11/09 00:00:35;;;;;;;90.03;22.40;;;;;;;;;;6283606;22;20416;-95
2021/11/09 00:03:04;;;;;;;94.40;23.00;;;;;;;;;;6283145;22;20412;-95
2021/11/09 00:05:31;;;;;;;98.17;22.67;;;;;;;;;;6282528;22;20410;-95
2021/11/09 00:07:59;;;;;;;88.60;21.63;;;;;;;;;;6284394;22;20426;-94
2021/11/09 00:10:28;;;;;;;95.23;22.77;;;;;;;;;;6283767;22;20435;-95
2021/11/09 00:12:55;;;;;;;99.47;23.80;;;;;;;;;;6282621;22;20450;-94
2021/11/09 00:15:24;;;;;;;96.70;23.20;;;;;;;;;;6281299;22;20410;-94
2021/11/09 00:17:53;;;;;;;90.60;22.87;;;;;;;;;;6280917;22;20444;-96
2021/11/09 00:20:20;;;;;;;96.20;24.53;;;;;;;;;;6280691;22;20415;-94
2021/11/09 00:22:47;;;;;;;91.70;24.87;;;;;;;;;;6283672;22;20533;-96
2021/11/09 00:25:15;;;;;;;87.30;22.57;;;;;;;;;;6282915;22;20410;-95
2021/11/09 00:27:42;;;;;;;89.60;22.40;;;;;;;;;;6284563;22;20410;-95
2021/11/09 00:30:09;;;;;;;95.97;23.23;;;;;;;;;;6257231;22;20410;-96
2021/11/09 00:32:37;;;;;;;84.00;21.80;;;;;;;;;;6284833;22;20414;-96
2021/11/09 00:35:06;;;;;;;85.43;21.67;;;;;;;;;;6284610;22;20421;-95
2021/11/09 00:37:33;;;;;;;95.90;26.33;;;;;;;;;;6283631;22;20411;-95
2021/11/09 00:39:59;;;;;;;97.47;23.23;;;;;;;;;;6282961;22;20410;-94
2021/11/09 00:42:26;;;;;;;98.93;24.20;;;;;;;;;;6283518;22;20463;-95
2021/11/09 00:44:53;;;;;;;90.87;23.23;;;;;;;;;;6283640;22;20470;-95
2021/11/09 00:47:20;;;;;;;90.93;24.20;;;;;;;;;;6283877;22;20406;-93
2021/11/09 00:49:46;;;;;;;94.00;22.83;;;;;;;;;;6283976;22;20413;-94
2021/11/09 00:52:14;;;;;;;99.10;24.67;;;;;;;;;;6282850;22;20416;-94
2021/11/09 00:54:41;;;;;;;95.17;26.37;;;;;;;;;;6281811;22;20408;-94
2021/11/09 00:57:07;;;;;;;98.13;25.70;;;;;;;;;;6283109;22;20418;-94
2021/11/09 00:59:34;;;;;;;95.67;25.60;;;;;;;;;;6282190;22;20401;-93
2021/11/09 01:02:01;;;;;;;101.47;26.40;;;;;;;;;;6283355;22;20483;-93
2021/11/09 01:04:27;;;;;;;102.37;26.53;;;;;;;;;;6283069;22;20436;-95
2021/11/09 01:06:54;;;;;;;109.07;28.80;;;;;;;;;;6284590;22;20423;-96
2021/11/09 01:09:23;;;;;;;102.10;27.97;;;;;;;;;;6284256;22;20405;-95
2021/11/09 01:11:49;;;;;;;104.20;28.27;;;;;;;;;;6284554;22;20503;-96
2021/11/09 01:14:16;;;;;;;96.00;26.57;;;;;;;;;;6284740;22;20416;-96
2021/11/09 01:16:43;;;;;;;98.63;27.60;;;;;;;;;;6283577;22;20444;-95
2021/11/09 01:19:10;;;;;;;94.67;23.70;;;;;;;;;;6282848;22;20419;-95
2021/11/09 01:21:36;;;;;;;91.23;24.60;;;;;;;;;;6283292;22;21148;-95
2021/11/09 01:24:03;;;;;;;96.90;25.20;;;;;;;;;;6282655;22;20402;-94
2021/11/09 01:26:31;;;;;;;99.90;26.23;;;;;;;;;;6283200;22;20413;-94
2021/11/09 01:29:00;;;;;;;93.23;25.80;;;;;;;;;;6284071;22;20401;-96
2021/11/09 01:31:27;;;;;;;97.30;26.83;;;;;;;;;;6283768;22;20414;-95
2021/11/09 01:33:54;;;;;;;101.03;28.10;;;;;;;;;;6282565;22;20425;-95
2021/11/09 01:36:21;;;;;;;94.77;26.37;;;;;;;;;;6288505;22;21151;-96
2021/11/09 01:38:49;;;;;;;91.87;24.00;;;;;;;;;;6287135;22;20411;-96
2021/11/09 01:41:15;;;;;;;90.90;23.70;;;;;;;;;;6286448;22;21270;-95
2021/11/09 01:43:44;;;;;;;93.07;22.20;;;;;;;;;;6283150;22;21087;-95
2021/11/09 01:46:12;;;;;;;97.87;24.10;;;;;;;;;;6283413;22;20402;-95
2021/11/09 01:48:40;;;;;;;95.77;23.73;;;;;;;;;;6282651;22;20422;-95
2021/11/09 01:51:07;;;;;;;98.30;24.87;;;;;;;;;;6282747;22;20408;-95
2021/11/09 01:53:35;;;;;;;92.97;24.10;;;;;;;;;;6285746;22;20418;-95
2021/11/09 01:56:02;;;;;;;90.03;22.47;;;;;;;;;;6288152;22;20413;-95
2021/11/09 01:58:29;;;;;;;89.50;22.87;;;;;;;;;;6296022;22;20411;-95
2021/11/09 02:00:58;;;;;;;93.43;23.53;;;;;;;;;;6288709;22;20412;-95
2021/11/09 02:03:26;;;;;;;89.27;22.60;;;;;;;;;;6275671;22;20461;-94
2021/11/09 02:05:53;;;;;;;101.60;26.60;;;;;;;;;;6278746;22;20409;-93
2021/11/09 02:08:20;;;;;;;100.67;25.73;;;;;;;;;;6281686;22;20420;-93
2021/11/09 02:10:48;;;;;;;95.70;23.43;;;;;;;;;;6282361;22;20405;-95
2021/11/09 02:13:15;;;;;;;100.33;25.63;;;;;;;;;;6282110;22;20436;-95
2021/11/09 02:15:42;;;;;;;102.83;26.20;;;;;;;;;;6280808;22;20413;-95
2021/11/09 02:18:11;;;;;;;96.37;24.60;;;;;;;;;;6281003;22;21356;-95
2021/11/09 02:20:38;;;;;;;89.27;23.27;;;;;;;;;;6278355;22;20409;-95
2021/11/09 02:23:07;;;;;;;99.83;25.77;;;;;;;;;;6280681;22;20813;-95
2021/11/09 02:25:34;;;;;;;100.77;26.40;;;;;;;;;;6280288;22;20410;-94
2021/11/09 02:28:01;;;;;;;96.07;27.80;;;;;;;;;;6280319;22;20441;-94
2021/11/09 02:30:29;;;;;;;99.90;27.50;;;;;;;;;;6278652;22;20439;-94
2021/11/09 02:32:57;;;;;;;96.07;25.70;;;;;;;;;;6281391;22;20409;-95
2021/11/09 02:35:24;;;;;;;94.80;25.87;;;;;;;;;;6282851;22;20427;-94
2021/11/09 02:37:50;;;;;;;102.60;25.47;;;;;;;;;;6284499;22;20417;-93
2021/11/09 02:40:19;;;;;;;99.43;27.23;;;;;;;;;;6284632;22;20420;-93
2021/11/09 02:42:47;;;;;;;94.07;25.67;;;;;;;;;;6283957;22;20468;-94
2021/11/09 02:45:17;;;;;;;99.53;27.50;;;;;;;;;;6283708;22;20441;-94
2021/11/09 02:47:47;;;;;;;98.23;26.20;;;;;;;;;;6283979;22;20414;-94
2021/11/09 02:50:14;;;;;;;96.90;25.97;;;;;;;;;;6283760;22;20430;-95
2021/11/09 02:52:48;;;;;;;99.47;26.20;;;;;;;;;;6284665;22;20425;-96
2021/11/09 02:55:15;;;;;;;97.13;25.70;;;;;;;;;;6285453;22;20973;-95
2021/11/09 02:57:48;;;;;;;106.97;24.70;;;;;;;;;;6284848;22;20492;-95
2021/11/09 03:00:22;;;;;;;94.50;24.13;;;;;;;;;;6284262;22;20453;-96
2021/11/09 03:02:51;;;;;;;93.70;24.10;;;;;;;;;;6284540;22;20479;-94
2021/11/09 03:05:23;;;;;;;98.40;24.20;;;;;;;;;;6284114;22;20998;-94
2021/11/09 03:07:53;;;;;;;101.40;24.97;;;;;;;;;;6284367;22;20434;-93
2021/11/09 03:10:27;;;;;;;93.43;24.40;;;;;;;;;;6284145;22;20465;-94
2021/11/09 03:12:55;;;;;;;93.33;24.00;;;;;;;;;;6283777;22;20447;-94
2021/11/09 03:15:26;;;;;;;94.50;23.47;;;;;;;;;;6283239;22;20430;-95
2021/11/09 03:17:55;;;;;;;94.97;24.77;;;;;;;;;;6283620;22;20431;-94
2021/11/09 03:20:27;;;;;;;92.80;24.40;;;;;;;;;;6284203;22;20922;-95
2021/11/09 03:45:02;;;;;;;93.43;24.67;;;;;;;;;;6282168;22;20405;-95
2021/11/09 03:47:28;;;;;;;97.10;25.67;;;;;;;;;;6283151;22;20404;-94
2021/11/09 03:49:55;;;;;;;95.07;23.67;;;;;;;;;;6282779;22;20415;-94
2021/11/09 03:52:24;;;;;;;91.93;23.33;;;;;;;;;;6282628;22;20421;-94
2021/11/09 03:54:58;;;;;;;96.53;25.37;;;;;;;;;;6281976;22;20417;-94
2021/11/09 03:57:27;;;;;;;94.77;24.37;;;;;;;;;;6282096;22;20413;-93
2021/11/09 04:00:06;;;;;;;89.57;23.20;;;;;;;;;;6281016;22;20409;-95
2021/11/09 04:02:43;;;;;;;98.83;24.60;;;;;;;;;;6283615;22;21433;-94
2021/11/09 04:05:12;;;;;;;92.73;24.50;;;;;;;;;;6284837;22;20414;-94
2021/11/09 04:07:43;;;;;;;92.17;24.40;;;;;;;;;;6284846;22;20413;-94
2021/11/09 04:10:28;;;;;;;94.70;25.93;;;;;;;;;;6284684;22;20437;-93
2021/11/09 04:13:02;;;;;;;100.47;26.17;;;;;;;;;;6284201;22;20416;-93
2021/11/09 04:15:46;;;;;;;93.67;25.30;;;;;;;;;;6283589;22;20777;-91
2021/11/09 04:18:31;;;;;;;111.97;26.80;;;;;;;;;;6285338;22;20413;-95
2021/11/09 04:21:06;;;;;;;98.60;27.17;;;;;;;;;;6284803;22;20436;-92
2021/11/09 04:29:12;;;;;;;96.13;25.83;;;;;;;;;;6287254;22;20388;-94
2021/11/09 04:31:57;;;;;;;97.67;26.30;;;;;;;;;;6293487;22;20406;-94
2021/11/09 04:48:47;;;;;;;92.90;24.70;;;;;;;;;;6283356;22;20413;-93
2021/11/09 05:02:50;;;;;;;111.33;32.50;;;;;;;;;;6284084;22;20870;-93
2021/11/09 05:08:26;;;;;;;101.57;30.80;;;;;;;;;;6282880;22;20409;-96
2021/11/09 05:10:55;;;;;;;96.33;28.07;;;;;;;;;;6282695;22;20413;-94
2021/11/09 05:13:21;;;;;;;103.80;29.77;;;;;;;;;;6281889;22;20420;-93
2021/11/09 05:15:48;;;;;;;101.97;27.90;;;;;;;;;;6281883;22;20409;-94
2021/11/09 05:18:14;;;;;;;98.87;28.27;;;;;;;;;;6283250;22;20439;-93
2021/11/09 05:20:42;;;;;;;103.30;27.87;;;;;;;;;;6283408;22;20401;-93
2021/11/09 05:23:09;;;;;;;105.93;29.37;;;;;;;;;;6283275;22;20837;-94
2021/11/09 05:25:36;;;;;;;102.97;29.03;;;;;;;;;;6282502;22;20412;-94
2021/11/09 05:28:04;;;;;;;103.10;28.40;;;;;;;;;;6283902;22;20412;-95
2021/11/09 05:30:31;;;;;;;97.10;27.93;;;;;;;;;;6283513;22;20439;-94
2021/11/09 05:32:59;;;;;;;99.60;28.73;;;;;;;;;;6283490;22;20411;-94
2021/11/09 05:35:26;;;;;;;98.77;27.60;;;;;;;;;;6282644;22;20402;-93
2021/11/09 05:37:56;;;;;;;92.10;25.17;;;;;;;;;;6283314;22;20417;-94
2021/11/09 05:40:27;;;;;;;100.97;28.73;;;;;;;;;;6283567;22;21152;-94
2021/11/09 05:42:54;;;;;;;100.73;28.17;;;;;;;;;;6284069;22;20486;-93
2021/11/09 05:45:21;;;;;;;101.63;29.90;;;;;;;;;;6282887;22;20435;-93
2021/11/09 05:47:47;;;;;;;105.77;29.83;;;;;;;;;;6282739;22;20409;-93
2021/11/09 05:50:14;;;;;;;99.53;29.93;;;;;;;;;;6282661;22;20972;-93
2021/11/09 05:52:40;;;;;;;99.27;29.10;;;;;;;;;;6282034;22;20404;-93
2021/11/09 05:55:09;;;;;;;105.17;32.87;;;;;;;;;;6280311;22;20409;-94
2021/11/09 05:57:35;;;;;;;113.27;32.43;;;;;;;;;;6280790;22;20414;-93
2021/11/09 06:00:03;;;;;;;108.07;33.20;;;;;;;;;;6280931;22;20820;-93
2021/11/09 06:02:30;;;;;;;108.77;34.20;;;;;;;;;;6282172;22;20932;-92
2021/11/09 06:04:56;;;;;;;108.67;33.40;;;;;;;;;;6282009;22;20415;-94
2021/11/09 06:07:23;;;;;;;108.67;34.50;;;;;;;;;;6282711;22;20436;-93
2021/11/09 06:09:49;;;;;;;103.10;30.40;;;;;;;;;;6283177;22;20440;-94
2021/11/09 06:12:17;;;;;;;113.57;33.30;;;;;;;;;;6279703;22;20417;-93
2021/11/09 06:14:44;;;;;;;104.20;33.10;;;;;;;;;;6283198;22;20417;-92
2021/11/09 06:17:10;;;;;;;111.00;31.53;;;;;;;;;;6282759;22;20424;-92
2021/11/09 06:19:37;;;;;;;102.40;30.73;;;;;;;;;;6282920;22;20427;-92
2021/11/09 06:22:04;;;;;;;105.63;31.90;;;;;;;;;;6281766;22;20419;-92
2021/11/09 06:24:31;;;;;;;110.53;32.83;;;;;;;;;;6278867;22;20449;-93
2021/11/09 06:26:57;;;;;;;106.10;31.00;;;;;;;;;;6281012;22;20413;-93
2021/11/09 06:29:25;;;;;;;108.20;32.83;;;;;;;;;;6282423;22;20796;-94
2021/11/09 06:31:52;;;;;;;118.83;33.50;;;;;;;;;;6283115;22;20436;-93
2021/11/09 06:34:19;;;;;;;115.77;31.70;;;;;;;;;;6282359;22;20517;-92
2021/11/09 06:36:46;;;;;;;104.77;33.43;;;;;;;;;;6282367;22;20436;-93
2021/11/09 06:39:13;;;;;;;104.93;32.30;;;;;;;;;;6281135;22;20422;-94
2021/11/09 06:41:39;;;;;;;107.83;30.70;;;;;;;;;;6281995;22;20449;-94
2021/11/09 06:44:06;;;;;;;103.40;30.43;;;;;;;;;;6282976;22;20441;-94
2021/11/09 06:46:34;;;;;;;101.37;30.73;;;;;;;;;;6281457;22;20417;-94
2021/11/09 06:49:00;;;;;;;104.43;30.60;;;;;;;;;;6281543;22;21236;-94
2021/11/09 06:51:27;;;;;;;106.80;31.27;;;;;;;;;;6282549;22;20406;-95
2021/11/09 06:53:53;;;;;;;103.83;30.37;;;;;;;;;;6285048;22;20419;-94
2021/11/09 06:56:20;;;;;;;102.43;31.00;;;;;;;;;;6280494;22;20407;-95
2021/11/09 06:58:47;;;;;;;109.73;30.07;;;;;;;;;;6281766;22;20415;-95
2021/11/09 07:01:13;;;;;;;98.50;30.00;;;;;;;;;;6286169;22;20429;-95
2021/11/09 07:03:41;;;;;;;103.20;29.23;;;;;;;;;;6287925;22;20448;-95
2021/11/09 07:06:08;;;;;;;108.67;30.17;;;;;;;;;;6294188;22;20417;-95
2021/11/09 07:08:35;;;;;;;102.23;30.07;;;;;;;;;;6295748;22;20422;-95
2021/11/09 07:11:03;;;;;;;108.50;31.80;;;;;;;;;;6285932;22;20483;-94
2021/11/09 07:13:29;;;;;;;99.60;30.50;;;;;;;;;;6282810;22;20418;-95
2021/11/09 07:15:56;;;;;;;107.70;31.40;;;;;;;;;;6283779;22;20411;-96
2021/11/09 07:18:23;;;;;;;106.50;30.80;;;;;;;;;;6284903;22;20414;-94
2021/11/09 07:20:51;;;;;;;98.93;31.00;;;;;;;;;;6285495;22;20439;-95
2021/11/09 07:23:18;;;;;;;102.20;30.10;;;;;;;;;;6285458;22;20518;-94
2021/11/09 07:25:45;;;;;;;101.93;31.93;;;;;;;;;;6283968;22;20411;-95
2021/11/09 07:28:12;;;;;;;110.07;29.30;;;;;;;;;;6282689;22;20403;-94
2021/11/09 07:30:43;;;;;;;103.13;30.00;;;;;;;;;;6281763;22;20427;-96
2021/11/09 07:33:19;;;;;;;114.67;31.30;;;;;;;;;;6283265;22;20767;-96
2021/11/09 07:35:45;;;;;;;104.70;31.73;;;;;;;;;;6282622;22;20415;-95
2021/11/09 07:38:13;;;;;;;105.10;31.30;;;;;;;;;;6286959;22;20416;-94
2021/11/09 07:40:40;;;;;;;102.00;30.33;;;;;;;;;;6284654;22;20438;-95
2021/11/09 07:43:07;;;;;;;107.40;30.53;;;;;;;;;;6285870;22;20447;-94
2021/11/09 07:45:35;;;;;;;103.87;30.97;;;;;;;;;;6284940;22;20933;-96
2021/11/09 07:48:02;;;;;;;103.10;31.70;;;;;;;;;;6288728;22;21015;-96
2021/11/09 07:50:30;;;;;;;113.87;32.00;;;;;;;;;;6285665;22;20436;-96
2021/11/09 07:52:59;;;;;;;106.43;32.33;;;;;;;;;;6291765;22;20404;-96
2021/11/09 07:55:30;;;;;;;115.23;33.87;;;;;;;;;;6288965;22;20491;-95
2021/11/09 07:57:58;;;;;;;112.77;34.87;;;;;;;;;;6285692;22;20412;-94
2021/11/09 08:00:33;;;;;;;105.33;32.40;;;;;;;;;;6286104;22;20515;-94
2021/11/09 08:03:12;;;;;;;106.30;33.57;;;;;;;;;;6285962;22;20462;-95
2021/11/09 08:05:45;;;;;;;100.83;31.90;;;;;;;;;;6285578;22;20401;-95
2021/11/09 08:08:14;;;;;;;108.60;35.80;;;;;;;;;;6285654;22;20417;-95
2021/11/09 08:13:23;;;;;;;109.43;34.83;;;;;;;;;;6259858;22;21036;-96
2021/11/09 08:15:50;;;;;;;103.47;32.77;;;;;;;;;;6262622;22;20903;-96
2021/11/09 08:18:21;;;;;;;104.27;33.80;;;;;;;;;;6285686;22;20465;-96
2021/11/09 08:23:28;;;;;;;104.83;33.70;;;;;;;;;;6275007;22;20453;-96
2021/11/09 08:26:00;;;;;;;104.27;33.27;;;;;;;;;;6285399;22;21021;-96
2021/11/09 08:28:50;;;;;;;99.77;33.50;;;;;;;;;;6254328;22;20508;-96
2021/11/09 08:34:16;;;;;;;105.93;33.53;;;;;;;;;;6252013;22;20461;-96
2021/11/09 08:44:39;;;;;;;103.23;31.50;;;;;;;;;;6237538;23;21095;-96
2021/11/09 08:47:08;;;;;;;105.23;30.93;;;;;;;;;;6231890;23;20418;-96
2021/11/09 09:04:14;;;;;;;100.47;29.70;;;;;;;;;;6275400;22;20937;-96
2021/11/09 09:06:41;;;;;;;102.47;29.33;;;;;;;;;;6266720;22;20454;-95
2021/11/09 09:20:49;;;;;;;98.40;29.83;;;;;;;;;;6217573;22;20458;-96
2021/11/09 09:23:21;;;;;;;98.33;30.27;;;;;;;;;;6267820;22;20444;-96
2021/11/09 09:55:14;;;;;;;94.03;28.63;;;;;;;;;;6260521;22;20452;-95
2021/11/09 09:57:43;;;;;;;101.67;31.93;;;;;;;;;;6295332;22;20436;-96
2021/11/09 10:00:14;;;;;;;104.37;35.47;;;;;;;;;;6299675;22;20405;-94
2021/11/09 10:05:38;;;;;;;94.07;28.47;;;;;;;;;;6269473;22;20437;-96
2021/11/09 10:08:10;;;;;;;98.17;29.60;;;;;;;;;;6269255;23;20394;-96
2021/11/09 10:10:38;;;;;;;100.00;29.40;;;;;;;;;;6244655;23;20400;-96
2021/11/09 10:13:08;;;;;;;92.90;28.27;;;;;;;;;;6265316;23;20436;-96
2021/11/09 10:18:24;;;;;;;95.97;27.27;;;;;;;;;;6266719;22;20451;-93
2021/11/09 10:20:53;;;;;;;96.00;24.90;;;;;;;;;;6298486;22;20455;-96
2021/11/09 10:23:24;;;;;;;87.70;26.07;;;;;;;;;;6288322;22;20413;-96
2021/11/09 10:26:10;;;;;;;92.83;26.17;;;;;;;;;;6298335;22;20416;-96
2021/11/09 10:28:38;;;;;;;99.13;26.70;;;;;;;;;;6292722;22;20390;-95
2021/11/09 10:31:07;;;;;;;93.33;25.00;;;;;;;;;;6293525;22;20442;-95
2021/11/09 10:33:40;;;;;;;86.43;24.80;;;;;;;;;;6292439;22;20417;-96
2021/11/09 10:36:16;;;;;;;88.17;25.40;;;;;;;;;;6292230;22;20437;-94
2021/11/09 10:38:44;;;;;;;93.90;24.80;;;;;;;;;;6281857;22;20427;-94
2021/11/09 10:41:13;;;;;;;93.10;24.57;;;;;;;;;;6277417;22;20446;-94
2021/11/09 10:43:42;;;;;;;93.80;25.13;;;;;;;;;;6278222;22;21011;-95
2021/11/09 10:46:20;;;;;;;90.07;24.60;;;;;;;;;;6278617;22;20428;-94
2021/11/09 10:48:47;;;;;;;85.43;24.30;;;;;;;;;;6284468;22;20421;-94
2021/11/09 10:51:14;;;;;;;84.77;24.37;;;;;;;;;;6284311;22;20406;-95
2021/11/09 10:53:43;;;;;;;86.20;23.37;;;;;;;;;;6286434;22;20988;-95
2021/11/09 10:56:18;;;;;;;81.13;21.30;;;;;;;;;;6286527;22;20431;-93
2021/11/09 10:59:04;;;;;;;80.97;22.00;;;;;;;;;;6285701;22;21269;-92
2021/11/09 11:04:14;;;;;;;85.63;21.57;;;;;;;;;;6285861;22;20457;-91
2021/11/09 11:06:43;;;;;;;79.50;21.73;;;;;;;;;;6285538;22;20442;-93
2021/11/09 11:09:17;;;;;;;87.43;23.17;;;;;;;;;;6285265;22;20417;-92
2021/11/09 11:11:45;;;;;;;82.67;22.83;;;;;;;;;;6286299;22;20407;-95
2021/11/09 11:14:15;;;;;;;81.17;22.43;;;;;;;;;;6285682;22;20764;-94
2021/11/09 11:16:43;;;;;;;85.70;22.83;;;;;;;;;;6285677;22;20417;-92
2021/11/09 11:19:10;;;;;;;86.13;21.97;;;;;;;;;;6284182;22;20945;-94
2021/11/09 11:21:37;;;;;;;81.87;20.20;;;;;;;;;;6285398;22;21094;-93
2021/11/09 11:24:03;;;;;;;81.83;22.13;;;;;;;;;;6284819;22;20475;-93
2021/11/09 11:26:32;;;;;;;81.17;21.13;;;;;;;;;;6283954;22;20413;-95
2021/11/09 11:28:59;;;;;;;81.53;21.03;;;;;;;;;;6283159;22;20411;-94
2021/11/09 11:31:29;;;;;;;81.27;20.63;;;;;;;;;;6283098;22;20456;-95
2021/11/09 11:33:55;;;;;;;84.00;20.73;;;;;;;;;;6285477;22;20418;-95
2021/11/09 11:36:22;;;;;;;80.70;21.33;;;;;;;;;;6286232;22;20417;-95
2021/11/09 11:38:50;;;;;;;78.93;19.87;;;;;;;;;;6286370;22;20408;-92
2021/11/09 11:41:17;;;;;;;81.23;20.27;;;;;;;;;;6286310;22;20447;-93
2021/11/09 11:43:57;;;;;;;80.53;20.40;;;;;;;;;;6285924;22;20416;-93
2021/11/09 11:46:42;;;;;;;76.97;19.10;;;;;;;;;;6284407;22;20412;-93
2021/11/09 11:49:11;;;;;;;83.63;20.00;;;;;;;;;;6285055;22;20890;-95
2021/11/09 11:51:39;;;;;;;80.20;20.00;;;;;;;;;;6286946;22;20405;-91
2021/11/09 11:54:07;;;;;;;76.20;18.30;;;;;;;;;;6288985;22;20716;-94
2021/11/09 11:56:49;;;;;;;79.90;19.17;;;;;;;;;;6295003;22;20393;-95
2021/11/09 11:59:35;;;;;;;78.13;18.97;;;;;;;;;;6292637;22;20498;-94
2021/11/09 12:02:03;;;;;;;75.07;19.00;;;;;;;;;;6280897;22;20435;-93
2021/11/09 12:04:47;;;;;;;77.50;19.30;;;;;;;;;;6278298;22;20452;-94
2021/11/09 12:07:17;;;;;;;79.70;17.87;;;;;;;;;;6286181;22;21199;-96
2021/11/09 12:09:45;;;;;;;73.87;17.20;;;;;;;;;;6287026;22;20419;-92
2021/11/09 12:12:27;;;;;;;74.50;17.40;;;;;;;;;;6283639;22;20431;-90
2021/11/09 12:15:03;;;;;;;77.97;17.70;;;;;;;;;;6283710;22;20405;-92
2021/11/09 12:17:31;;;;;;;73.77;16.80;;;;;;;;;;6255015;22;20465;-92
2021/11/09 12:19:59;;;;;;;75.50;16.80;;;;;;;;;;6290383;22;20400;-93
2021/11/09 12:22:37;;;;;;;74.40;17.30;;;;;;;;;;6288915;22;20405;-93
2021/11/09 12:25:05;;;;;;;75.50;17.10;;;;;;;;;;6284807;22;20480;-95
2021/11/09 12:27:47;;;;;;;79.93;18.93;;;;;;;;;;6285697;22;20413;-93
2021/11/09 12:30:14;;;;;;;77.60;18.03;;;;;;;;;;6286087;22;20401;-96
2021/11/09 12:32:46;;;;;;;77.00;17.20;;;;;;;;;;6284143;22;20495;-96
2021/11/09 12:35:24;;;;;;;77.37;16.90;;;;;;;;;;6264179;22;20445;-96
2021/11/09 12:38:09;;;;;;;74.37;15.90;;;;;;;;;;6294335;22;20467;-96
2021/11/09 12:40:46;;;;;;;72.60;15.53;;;;;;;;;;6290925;22;20814;-96
2021/11/09 12:43:29;;;;;;;74.60;16.40;;;;;;;;;;6295047;22;20405;-96
2021/11/09 12:46:02;;;;;;;77.30;17.70;;;;;;;;;;6291761;22;20444;-96
2021/11/09 12:48:30;;;;;;;75.10;14.40;;;;;;;;;;6288824;22;20394;-96
2021/11/09 12:51:01;;;;;;;73.40;16.37;;;;;;;;;;6283292;22;20950;-94
2021/11/09 12:53:34;;;;;;;77.47;16.30;;;;;;;;;;6280703;22;20416;-96
2021/11/09 12:56:08;;;;;;;81.13;17.40;;;;;;;;;;6286013;22;20435;-94
2021/11/09 12:58:37;;;;;;;75.33;17.37;;;;;;;;;;6284258;22;20431;-94
2021/11/09 13:04:26;;;;;;;73.37;16.17;;;;;;;;;;6282610;22;20469;-95
2021/11/09 13:07:01;;;;;;;75.40;16.13;;;;;;;;;;6285530;22;20443;-96
2021/11/09 13:09:33;;;;;;;75.90;15.37;;;;;;;;;;6286193;22;20400;-95
2021/11/09 13:12:00;;;;;;;72.37;15.50;;;;;;;;;;6287004;22;20401;-96
2021/11/09 13:14:32;;;;;;;77.93;14.87;;;;;;;;;;6284646;22;20416;-94
2021/11/09 13:16:58;;;;;;;75.23;15.20;;;;;;;;;;6285596;22;20420;-94
2021/11/09 13:19:26;;;;;;;73.37;14.67;;;;;;;;;;6284392;22;20511;-96
2021/11/09 13:22:07;;;;;;;76.30;15.67;;;;;;;;;;6286497;22;20409;-94
2021/11/09 13:24:37;;;;;;;75.17;14.50;;;;;;;;;;6286718;22;20440;-94
2021/11/09 13:27:04;;;;;;;71.97;13.73;;;;;;;;;;6287597;22;20791;-94
2021/11/09 13:29:37;;;;;;;68.17;11.87;;;;;;;;;;6286941;22;20423;-94
2021/11/09 13:32:06;;;;;;;69.10;14.10;;;;;;;;;;6286582;22;20456;-92
2021/11/09 13:34:33;;;;;;;70.37;14.37;;;;;;;;;;6286463;22;20412;-95
2021/11/09 13:37:03;;;;;;;70.17;13.33;;;;;;;;;;6287639;22;20440;-95
2021/11/09 13:39:29;;;;;;;68.83;13.10;;;;;;;;;;6286039;22;20408;-93
2021/11/09 13:42:01;;;;;;;68.00;12.57;;;;;;;;;;6285677;22;20409;-93
2021/11/09 13:44:31;;;;;;;71.20;13.83;;;;;;;;;;6282661;22;20423;-96
2021/11/09 13:47:00;;;;;;;70.17;12.90;;;;;;;;;;6285404;22;20948;-93
2021/11/09 13:49:29;;;;;;;67.20;12.23;;;;;;;;;;6286691;22;20411;-95
2021/11/09 13:52:00;;;;;;;67.30;12.13;;;;;;;;;;6287897;22;20435;-96
2021/11/09 13:54:28;;;;;;;74.87;13.57;;;;;;;;;;6287458;22;20412;-96
2021/11/09 13:57:05;;;;;;;69.47;13.17;;;;;;;;;;6289831;22;20401;-96
2021/11/09 13:59:34;;;;;;;71.93;12.07;;;;;;;;;;6291013;22;21075;-96
2021/11/09 14:02:13;;;;;;;72.20;11.93;;;;;;;;;;6290409;22;20439;-93
2021/11/09 14:18:31;;;;;;;70.87;11.40;;;;;;;;;;6282762;22;20412;-95
2021/11/09 14:20:59;;;;;;;72.80;12.73;;;;;;;;;;6290905;22;20413;-94
2021/11/09 14:23:31;;;;;;;67.50;12.07;;;;;;;;;;6287713;22;20409;-93
2021/11/09 14:25:59;;;;;;;68.03;11.63;;;;;;;;;;6287184;22;20458;-96
2021/11/09 14:28:32;;;;;;;71.60;12.00;;;;;;;;;;6290817;22;20476;-92
2021/11/09 14:31:11;;;;;;;68.20;13.20;;;;;;;;;;6290900;22;20485;-96
2021/11/09 14:33:37;;;;;;;72.90;12.57;;;;;;;;;;6286805;22;20403;-94
2021/11/09 14:36:21;;;;;;;70.90;12.33;;;;;;;;;;6288240;22;20412;-96
2021/11/09 14:38:52;;;;;;;71.73;12.20;;;;;;;;;;6291097;22;20489;-95
2021/11/09 14:41:24;;;;;;;72.10;12.83;;;;;;;;;;6291657;22;20435;-96
2021/11/09 14:43:57;;;;;;;69.10;11.90;;;;;;;;;;6286968;22;20443;-93
2021/11/09 14:46:28;;;;;;;67.43;12.23;;;;;;;;;;6287599;22;20596;-94
2021/11/09 14:49:07;;;;;;;67.43;11.50;;;;;;;;;;6287871;22;20488;-95
2021/11/09 14:51:34;;;;;;;66.67;11.60;;;;;;;;;;6287781;22;20464;-95
2021/11/09 14:54:12;;;;;;;72.67;14.87;;;;;;;;;;6288406;22;20444;-95
2021/11/09 14:56:39;;;;;;;65.57;11.20;;;;;;;;;;6287943;22;20416;-96
2021/11/09 14:59:07;;;;;;;67.30;11.97;;;;;;;;;;6289026;22;20397;-93
2021/11/09 15:01:41;;;;;;;68.00;11.30;;;;;;;;;;6287721;22;20429;-95
2021/11/09 15:04:12;;;;;;;68.60;12.17;;;;;;;;;;6287702;22;20412;-96
2021/11/09 15:06:47;;;;;;;71.53;11.90;;;;;;;;;;6283968;22;20452;-95
2021/11/09 15:09:38;;;;;;;65.60;12.20;;;;;;;;;;6285033;22;20408;-95
2021/11/09 15:12:23;;;;;;;65.83;11.57;;;;;;;;;;6289235;22;20416;-95
2021/11/09 15:26:19;;;;;;;69.47;13.17;;;;;;;;;;6289300;22;20479;-95
2021/11/09 15:29:02;;;;;;;68.00;13.10;;;;;;;;;;6287954;22;20424;-92
2021/11/09 15:31:30;;;;;;;70.73;14.53;;;;;;;;;;6286124;22;20439;-95
2021/11/09 15:34:25;;;;;;;74.00;16.50;;;;;;;;;;6285316;22;20405;-94
2021/11/09 15:36:59;;;;;;;87.03;25.00;;;;;;;;;;6286294;22;20456;-96
2021/11/09 15:39:29;;;;;;;73.50;17.10;;;;;;;;;;6288675;22;20404;-94
2021/11/09 15:41:59;;;;;;;73.40;16.60;;;;;;;;;;6288092;22;20522;-96
2021/11/09 15:44:30;;;;;;;69.60;13.80;;;;;;;;;;6286038;22;20420;-94
2021/11/09 15:46:57;;;;;;;73.47;15.27;;;;;;;;;;6287333;22;20480;-93
2021/11/09 15:49:26;;;;;;;67.27;12.83;;;;;;;;;;6287998;22;20694;-92
2021/11/09 15:51:52;;;;;;;66.47;11.33;;;;;;;;;;6287439;22;20519;-92
2021/11/09 15:54:20;;;;;;;74.17;16.33;;;;;;;;;;6286206;22;20401;-95
2021/11/09 15:56:46;;;;;;;66.10;10.83;;;;;;;;;;6259889;22;20420;-94
2021/11/09 15:59:13;;;;;;;65.40;11.70;;;;;;;;;;6283383;22;20422;-92
2021/11/09 16:01:45;;;;;;;69.97;12.67;;;;;;;;;;6288712;22;20411;-96
2021/11/09 16:04:13;;;;;;;75.07;14.57;;;;;;;;;;6262929;22;20653;-94
2021/11/09 16:06:43;;;;;;;74.37;14.40;;;;;;;;;;6285087;22;21062;-95
2021/11/09 16:09:10;;;;;;;76.60;16.03;;;;;;;;;;6282439;22;20416;-92
2021/11/09 16:11:39;;;;;;;70.67;13.90;;;;;;;;;;6283036;22;20416;-95
2021/11/09 16:14:06;;;;;;;68.37;12.07;;;;;;;;;;6285306;22;20423;-95
2021/11/09 16:16:35;;;;;;;73.70;16.00;;;;;;;;;;6286761;22;20437;-92
2021/11/09 16:19:02;;;;;;;66.27;11.43;;;;;;;;;;6285446;22;20401;-94
2021/11/09 16:21:28;;;;;;;65.90;11.30;;;;;;;;;;6285888;22;20424;-94
2021/11/09 16:23:56;;;;;;;71.90;12.03;;;;;;;;;;6286009;22;20437;-91
2021/11/09 16:26:23;;;;;;;67.93;10.53;;;;;;;;;;6287936;22;20447;-93
2021/11/09 16:28:50;;;;;;;66.23;10.97;;;;;;;;;;6285301;22;20418;-91
2021/11/09 16:31:17;;;;;;;67.47;10.60;;;;;;;;;;6283773;22;20465;-94
2021/11/09 16:33:44;;;;;;;69.50;13.93;;;;;;;;;;6284910;22;20402;-92
2021/11/09 16:36:12;;;;;;;72.50;11.60;;;;;;;;;;6286054;22;20412;-93
2021/11/09 16:38:43;;;;;;;67.60;12.17;;;;;;;;;;6287667;22;20467;-91
2021/11/09 16:41:16;;;;;;;67.80;11.40;;;;;;;;;;6298282;22;20415;-92
2021/11/09 16:43:46;;;;;;;83.57;20.73;;;;;;;;;;6292861;22;20411;-94
2021/11/09 16:46:22;;;;;;;111.77;39.40;;;;;;;;;;6286226;22;20466;-95
2021/11/09 16:48:57;;;;;;;78.13;20.00;;;;;;;;;;6284529;22;20415;-93
2021/11/09 16:51:24;;;;;;;66.40;10.63;;;;;;;;;;6285334;22;20461;-95
2021/11/09 16:53:57;;;;;;;65.83;10.70;;;;;;;;;;6284010;22;20417;-95
2021/11/09 16:56:42;;;;;;;76.27;15.93;;;;;;;;;;6287105;22;20408;-94
2021/11/09 16:59:34;;;;;;;67.67;10.97;;;;;;;;;;6284472;22;20411;-91
2021/11/09 17:02:17;;;;;;;65.23;11.10;;;;;;;;;;6284991;22;20483;-96
2021/11/09 18:21:25;;;;;;;65.20;11.20;;;;;;;;;;6284225;22;20394;-94
2021/11/09 18:23:51;;;;;;;67.17;12.33;;;;;;;;;;6286251;22;20419;-93
2021/11/09 18:26:18;;;;;;;67.67;12.77;;;;;;;;;;6285714;22;20459;-93
2021/11/09 18:28:45;;;;;;;65.50;11.90;;;;;;;;;;6287472;22;20409;-95
2021/11/09 18:31:15;;;;;;;65.37;11.87;;;;;;;;;;6288376;22;20403;-96